San Jose del Cabo (SJD/MMSD)

Map

Destinations

Information

Location
San Jose del Cabo, Baja California Sur, Mexico
Local Time
07:12 / 7:12 am
GMT Time
14:12 / 2:12 pm
Gates
Unassigned
No FAA reported delays
METAR MMSD 221345Z 32004KT 12SM SKC 10/08 A3011
TAF TAF MMSD 220427Z 2206/2306 00000KT P6SM SCT040 FM221800 32015KT P6SM SCT030 BKN120 FM230500 30006KT P6SM SCT030
  • No charts available